• Join FlightAware (Why Join?)
  • Login
  • US Flag 
12:47PM EDT


 

Airport Tracker/Info


-or-


 

Live Flight TrackerFlight Track Log ✈ ASQ4209 ✈ 07-Jul-2013 ✈ KIAH - KBTR

Flight Track Log - Related Links

Times and Time Zones

All times are in EDT time to prevent confusion due to time zone crossing. See the ASQ4209 flight status page for this flight to view local times or setup timezone preferences in your user account.

Time Position Orientation Groundspeed Altitude Reporting Facility
EDT Latitude Longitude Course Direction KTS MPH feet Rate Location/Type
01:04PM 29.9658 -95.3431 90° East 154 177 800  Level Houston Center
01:05PM 29.9333 -95.3028 133° Southeast 178 205 2,600 1,920 Climbing Houston Center
01:06PM 29.9056 -95.2347 115° Southeast 270 311 4,800 2,520 Climbing Houston Center
01:07PM 29.9834 -94.9077 90° East  Level FlightAware Approximate
01:07PM 29.8953 -95.1467 98° East 267 307 7,800  Level Houston Center
01:08PM 29.9834 -94.8013 90° East  Level FlightAware Approximate
01:08PM 29.8833 -95.0639 99° East 261 300 10,200  Level Houston Center
01:09PM 29.9834 -94.6949 90° East  Level FlightAware Approximate
01:09PM 29.8711 -94.9792 99° East 275 316 11,600  Level Houston Center
01:10PM 29.8542 -94.8769 101° East 313 360 12,800 1,140 Climbing Houston Center
01:11PM 29.8253 -94.7706 107° East 340 391 14,000 1,260 Climbing Houston Center
01:12PM 29.8136 -94.6350 96° East 364 419 15,500 1,320 Climbing Houston Center
01:13PM 29.8381 -94.5203 76° East 370 426 16,800 1,020 Climbing Houston Center
01:14PM 29.8603 -94.4033 78° East 373 429 17,700 1,020 Climbing Houston Center
01:15PM 29.8703 -94.2839 84° East 377 434 19,000 1,020 Climbing Houston Center
01:16PM 29.8447 -94.1608 103° East 381 438 19,900 840 Climbing Houston Center
01:17PM 29.8697 -94.0403 77° East 398 458 20,800 840 Climbing Houston Center
01:18PM 29.9081 -93.9228 69° East 394 453 21,700 960 Climbing Houston Center
01:19PM 29.9503 -93.7772 71° East 400 460 22,800 600 Climbing Houston Center
01:20PM 29.9847 -93.6544 72° East 404 465 23,000 60 Climbing Houston Center
01:21PM 30.0222 -93.5250 71° East 428 493 23,000  Level Houston Center
01:22PM 30.0581 -93.3936 72° East 433 498 23,000  Level Houston Center
01:23PM 30.1036 -93.2358 72° East 437 503 23,000  Level Houston Center
01:24PM 30.1472 -93.1069 69° East 438 504 23,000  Level Houston Center
01:25PM 30.2067 -92.9872 60° Northeast 433 498 23,000  Level Houston Center
01:26PM 30.2678 -92.8678 59° Northeast 435 501 23,000  Level Houston Center
01:27PM 30.3281 -92.7444 60° Northeast 440 506 23,000  Level Houston Center
01:28PM 30.3900 -92.5914 65° Northeast 439 505 23,000 -240 Level Houston Center
01:29PM 30.4414 -92.4619 65° Northeast 443 510 22,600 -1,080 Descending Houston Center
01:30PM 30.4864 -92.3456 66° East 437 503 20,800 -2,160 Descending Houston Center
01:31PM 30.5447 -92.2008 65° Northeast 417 480 18,100 -2,340 Descending Houston Center
01:32PM 30.5744 -92.0797 74° East 400 460 16,000 -2,100 Descending Houston Center
01:34PM 30.5844 -91.9558 85° East 391 450 13,800 -1,980 Descending Houston Center
01:35PM 30.5911 -91.8361 86° East 377 434 12,000 -1,380 Descending Houston Center
01:36PM 30.5953 -91.7150 88° East 377 434 11,000 -780 Descending Houston Center
01:37PM 30.5989 -91.5872 88° East 327 376 10,500 -1,440 Descending Houston Center
01:38PM 30.6108 -91.4983 81° East 286 329 8,100 -2,280 Descending Houston Center
01:39PM 30.6225 -91.4103 81° East 278 320 5,900 -2,040 Descending Houston Center
01:40PM 30.6353 -91.3308 79° East 273 314 3,900 -1,980 Descending Houston Center
01:42PM 30.5391 -91.1609 96° East  Level Estimated
01:49PM 30.5329 -91.1499 96° East  Level Estimated